sensor_id;sensor_type;location;lat;lon;timestamp;temperature;humidity
49042;DHT22;34859;51.608;11.462;2024-03-29T00:01:58;6.60;99.90
49042;DHT22;34859;51.608;11.462;2024-03-29T00:04:44;6.60;99.90
49042;DHT22;34859;51.608;11.462;2024-03-29T00:07:30;6.50;99.90
49042;DHT22;34859;51.608;11.462;2024-03-29T00:10:16;6.40;99.90
49042;DHT22;34859;51.608;11.462;2024-03-29T00:13:02;6.20;99.90
49042;DHT22;34859;51.608;11.462;2024-03-29T00:15:48;6.00;99.90
49042;DHT22;34859;51.608;11.462;2024-03-29T00:18:34;5.70;99.90
49042;DHT22;34859;51.608;11.462;2024-03-29T00:21:20;5.40;99.90
49042;DHT22;34859;51.608;11.462;2024-03-29T00:24:06;5.20;99.90
49042;DHT22;34859;51.608;11.462;2024-03-29T00:26:52;5.00;99.90
49042;DHT22;34859;51.608;11.462;2024-03-29T00:29:38;4.90;99.90
49042;DHT22;34859;51.608;11.462;2024-03-29T00:32:24;4.80;99.90
49042;DHT22;34859;51.608;11.462;2024-03-29T00:35:10;4.60;99.90
49042;DHT22;34859;51.608;11.462;2024-03-29T00:37:56;4.50;99.90
49042;DHT22;34859;51.608;11.462;2024-03-29T00:40:42;4.50;99.90
49042;DHT22;34859;51.608;11.462;2024-03-29T00:43:28;4.50;99.90
49042;DHT22;34859;51.608;11.462;2024-03-29T00:46:14;4.40;99.90
49042;DHT22;34859;51.608;11.462;2024-03-29T00:49:00;4.20;99.90
49042;DHT22;34859;51.608;11.462;2024-03-29T00:51:46;4.30;99.90
49042;DHT22;34859;51.608;11.462;2024-03-29T00:54:32;4.30;99.90
49042;DHT22;34859;51.608;11.462;2024-03-29T00:57:18;4.30;99.90
49042;DHT22;34859;51.608;11.462;2024-03-29T01:00:04;4.00;99.90
49042;DHT22;34859;51.608;11.462;2024-03-29T01:02:50;4.00;99.90
49042;DHT22;34859;51.608;11.462;2024-03-29T01:05:36;4.10;99.90
49042;DHT22;34859;51.608;11.462;2024-03-29T01:08:24;4.00;99.90
49042;DHT22;34859;51.608;11.462;2024-03-29T01:11:10;3.80;99.90
49042;DHT22;34859;51.608;11.462;2024-03-29T01:13:56;3.60;99.90
49042;DHT22;34859;51.608;11.462;2024-03-29T01:16:42;3.70;99.90
49042;DHT22;34859;51.608;11.462;2024-03-29T01:19:28;3.70;99.90
49042;DHT22;34859;51.608;11.462;2024-03-29T01:22:14;3.70;99.90
49042;DHT22;34859;51.608;11.462;2024-03-29T01:24:59;3.80;99.90
49042;DHT22;34859;51.608;11.462;2024-03-29T01:27:46;3.60;99.90
49042;DHT22;34859;51.608;11.462;2024-03-29T01:30:32;3.50;99.90
49042;DHT22;34859;51.608;11.462;2024-03-29T01:33:18;3.60;99.90
49042;DHT22;34859;51.608;11.462;2024-03-29T01:36:04;3.50;99.90
49042;DHT22;34859;51.608;11.462;2024-03-29T01:38:50;3.40;99.90
49042;DHT22;34859;51.608;11.462;2024-03-29T01:41:40;3.40;99.90
49042;DHT22;34859;51.608;11.462;2024-03-29T01:44:26;3.30;99.90
49042;DHT22;34859;51.608;11.462;2024-03-29T01:47:12;3.20;99.90
49042;DHT22;34859;51.608;11.462;2024-03-29T01:49:58;3.20;99.90
49042;DHT22;34859;51.608;11.462;2024-03-29T01:52:45;3.40;99.90
49042;DHT22;34859;51.608;11.462;2024-03-29T01:55:31;3.60;99.90
49042;DHT22;34859;51.608;11.462;2024-03-29T01:58:18;3.80;99.90
49042;DHT22;34859;51.608;11.462;2024-03-29T02:01:07;3.80;99.90
49042;DHT22;34859;51.608;11.462;2024-03-29T02:03:54;3.70;99.90
49042;DHT22;34859;51.608;11.462;2024-03-29T02:06:41;3.70;99.90
49042;DHT22;34859;51.608;11.462;2024-03-29T02:09:27;3.50;99.90
49042;DHT22;34859;51.608;11.462;2024-03-29T02:12:13;3.40;99.90
49042;DHT22;34859;51.608;11.462;2024-03-29T02:14:59;3.20;99.90
49042;DHT22;34859;51.608;11.462;2024-03-29T02:17:47;3.20;99.90
49042;DHT22;34859;51.608;11.462;2024-03-29T02:20:34;3.00;99.90
49042;DHT22;34859;51.608;11.462;2024-03-29T02:23:27;3.00;99.90
49042;DHT22;34859;51.608;11.462;2024-03-29T02:26:16;2.80;99.90
49042;DHT22;34859;51.608;11.462;2024-03-29T02:29:02;2.80;99.90
49042;DHT22;34859;51.608;11.462;2024-03-29T02:31:49;2.80;99.90
49042;DHT22;34859;51.608;11.462;2024-03-29T02:34:35;3.00;99.90
49042;DHT22;34859;51.608;11.462;2024-03-29T02:37:20;3.10;99.90
49042;DHT22;34859;51.608;11.462;2024-03-29T02:40:07;3.20;99.90
49042;DHT22;34859;51.608;11.462;2024-03-29T02:42:54;3.30;99.90
49042;DHT22;34859;51.608;11.462;2024-03-29T02:45:40;3.40;99.90
49042;DHT22;34859;51.608;11.462;2024-03-29T02:48:26;3.40;99.90
49042;DHT22;34859;51.608;11.462;2024-03-29T02:51:12;3.50;99.90
49042;DHT22;34859;51.608;11.462;2024-03-29T02:53:58;3.50;99.90
49042;DHT22;34859;51.608;11.462;2024-03-29T02:56:43;3.60;99.90
49042;DHT22;34859;51.608;11.462;2024-03-29T02:59:29;3.60;99.90
49042;DHT22;34859;51.608;11.462;2024-03-29T03:02:15;3.60;99.90
49042;DHT22;34859;51.608;11.462;2024-03-29T03:05:01;3.60;99.90
49042;DHT22;34859;51.608;11.462;2024-03-29T03:07:47;3.70;99.90
49042;DHT22;34859;51.608;11.462;2024-03-29T03:10:51;3.70;99.90
49042;DHT22;34859;51.608;11.462;2024-03-29T03:13:46;3.80;99.90
49042;DHT22;34859;51.608;11.462;2024-03-29T03:16:32;3.80;99.90
49042;DHT22;34859;51.608;11.462;2024-03-29T03:19:18;3.80;99.90
49042;DHT22;34859;51.608;11.462;2024-03-29T03:22:04;3.90;99.90
49042;DHT22;34859;51.608;11.462;2024-03-29T03:24:50;3.80;99.90
49042;DHT22;34859;51.608;11.462;2024-03-29T03:27:36;3.80;99.90
49042;DHT22;34859;51.608;11.462;2024-03-29T03:30:22;3.80;99.90
49042;DHT22;34859;51.608;11.462;2024-03-29T03:33:08;3.80;99.90
49042;DHT22;34859;51.608;11.462;2024-03-29T03:35:54;3.80;99.90
49042;DHT22;34859;51.608;11.462;2024-03-29T03:38:40;3.60;99.90
49042;DHT22;34859;51.608;11.462;2024-03-29T03:41:26;3.60;99.90
49042;DHT22;34859;51.608;11.462;2024-03-29T03:44:12;3.50;99.90
49042;DHT22;34859;51.608;11.462;2024-03-29T03:46:58;3.50;99.90
49042;DHT22;34859;51.608;11.462;2024-03-29T03:49:44;3.40;99.90
49042;DHT22;34859;51.608;11.462;2024-03-29T03:52:30;3.40;99.90
49042;DHT22;34859;51.608;11.462;2024-03-29T03:55:16;3.30;99.90
49042;DHT22;34859;51.608;11.462;2024-03-29T03:58:02;3.30;99.90
49042;DHT22;34859;51.608;11.462;2024-03-29T04:00:48;3.10;99.90
49042;DHT22;34859;51.608;11.462;2024-03-29T04:03:34;3.00;99.90
49042;DHT22;34859;51.608;11.462;2024-03-29T04:06:20;3.10;99.90
49042;DHT22;34859;51.608;11.462;2024-03-29T04:09:06;3.10;99.90
49042;DHT22;34859;51.608;11.462;2024-03-29T04:11:52;3.10;99.90
49042;DHT22;34859;51.608;11.462;2024-03-29T04:14:38;3.10;99.90
49042;DHT22;34859;51.608;11.462;2024-03-29T04:17:24;3.20;99.90
49042;DHT22;34859;51.608;11.462;2024-03-29T04:20:10;3.20;99.90
49042;DHT22;34859;51.608;11.462;2024-03-29T04:22:56;3.30;99.90
49042;DHT22;34859;51.608;11.462;2024-03-29T04:25:51;3.30;99.90
49042;DHT22;34859;51.608;11.462;2024-03-29T04:28:37;3.40;99.90
49042;DHT22;34859;51.608;11.462;2024-03-29T04:31:23;3.60;99.90
49042;DHT22;34859;51.608;11.462;2024-03-29T04:34:09;3.80;99.90
49042;DHT22;34859;51.608;11.462;2024-03-29T04:36:55;4.00;99.90
49042;DHT22;34859;51.608;11.462;2024-03-29T04:39:42;4.20;99.90
49042;DHT22;34859;51.608;11.462;2024-03-29T04:42:28;4.20;99.90
49042;DHT22;34859;51.608;11.462;2024-03-29T04:45:14;4.40;99.90
49042;DHT22;34859;51.608;11.462;2024-03-29T04:48:00;4.50;99.90
49042;DHT22;34859;51.608;11.462;2024-03-29T04:50:46;4.70;99.90
49042;DHT22;34859;51.608;11.462;2024-03-29T04:53:32;4.90;99.90
49042;DHT22;34859;51.608;11.462;2024-03-29T04:56:18;5.00;99.90
49042;DHT22;34859;51.608;11.462;2024-03-29T04:59:04;5.10;99.90
49042;DHT22;34859;51.608;11.462;2024-03-29T05:01:50;5.30;99.90
49042;DHT22;34859;51.608;11.462;2024-03-29T05:04:36;5.40;99.90
49042;DHT22;34859;51.608;11.462;2024-03-29T05:07:22;5.40;99.90
49042;DHT22;34859;51.608;11.462;2024-03-29T05:10:08;5.40;99.90
49042;DHT22;34859;51.608;11.462;2024-03-29T05:12:57;5.40;99.90
49042;DHT22;34859;51.608;11.462;2024-03-29T05:15:43;5.40;99.90
49042;DHT22;34859;51.608;11.462;2024-03-29T05:18:29;5.30;99.90
49042;DHT22;34859;51.608;11.462;2024-03-29T05:21:15;5.30;99.90
49042;DHT22;34859;51.608;11.462;2024-03-29T05:24:01;5.50;99.90
49042;DHT22;34859;51.608;11.462;2024-03-29T05:26:47;5.50;99.90
49042;DHT22;34859;51.608;11.462;2024-03-29T05:29:33;5.50;99.90
49042;DHT22;34859;51.608;11.462;2024-03-29T05:32:19;5.60;99.90
49042;DHT22;34859;51.608;11.462;2024-03-29T05:35:05;5.70;99.90
49042;DHT22;34859;51.608;11.462;2024-03-29T05:37:51;5.70;99.90
49042;DHT22;34859;51.608;11.462;2024-03-29T05:40:39;5.80;99.90
49042;DHT22;34859;51.608;11.462;2024-03-29T05:43:25;5.70;99.90
49042;DHT22;34859;51.608;11.462;2024-03-29T05:46:11;5.70;99.90
49042;DHT22;34859;51.608;11.462;2024-03-29T05:48:57;5.80;99.90
49042;DHT22;34859;51.608;11.462;2024-03-29T05:51:43;5.80;99.90
49042;DHT22;34859;51.608;11.462;2024-03-29T05:54:29;5.80;99.90
49042;DHT22;34859;51.608;11.462;2024-03-29T05:57:15;5.80;99.90
49042;DHT22;34859;51.608;11.462;2024-03-29T06:00:01;5.90;99.90
49042;DHT22;34859;51.608;11.462;2024-03-29T06:02:49;6.00;99.90
49042;DHT22;34859;51.608;11.462;2024-03-29T06:05:35;6.00;99.90
49042;DHT22;34859;51.608;11.462;2024-03-29T06:08:21;6.10;99.90
49042;DHT22;34859;51.608;11.462;2024-03-29T06:11:09;6.10;99.90
49042;DHT22;34859;51.608;11.462;2024-03-29T06:13:55;6.20;99.90
49042;DHT22;34859;51.608;11.462;2024-03-29T06:16:44;6.30;99.90
49042;DHT22;34859;51.608;11.462;2024-03-29T06:19:53;6.40;99.90
49042;DHT22;34859;51.608;11.462;2024-03-29T06:22:44;6.40;99.90
49042;DHT22;34859;51.608;11.462;2024-03-29T06:25:32;6.50;99.90
49042;DHT22;34859;51.608;11.462;2024-03-29T06:28:19;6.50;99.90
49042;DHT22;34859;51.608;11.462;2024-03-29T06:31:06;6.60;99.90
49042;DHT22;34859;51.608;11.462;2024-03-29T06:33:54;6.70;99.90
49042;DHT22;34859;51.608;11.462;2024-03-29T06:36:41;6.80;99.90
49042;DHT22;34859;51.608;11.462;2024-03-29T06:39:28;6.90;99.90
49042;DHT22;34859;51.608;11.462;2024-03-29T06:42:16;7.00;99.90
49042;DHT22;34859;51.608;11.462;2024-03-29T06:45:04;7.20;99.90
49042;DHT22;34859;51.608;11.462;2024-03-29T06:47:52;7.30;99.90
49042;DHT22;34859;51.608;11.462;2024-03-29T06:50:40;7.40;99.90
49042;DHT22;34859;51.608;11.462;2024-03-29T06:53:28;7.40;99.90
49042;DHT22;34859;51.608;11.462;2024-03-29T06:56:15;7.50;99.90
49042;DHT22;34859;51.608;11.462;2024-03-29T06:59:02;7.60;99.90
49042;DHT22;34859;51.608;11.462;2024-03-29T07:01:50;7.60;99.90
49042;DHT22;34859;51.608;11.462;2024-03-29T07:04:39;7.60;99.90
49042;DHT22;34859;51.608;11.462;2024-03-29T07:07:26;7.60;99.90
49042;DHT22;34859;51.608;11.462;2024-03-29T07:10:13;7.60;99.90
49042;DHT22;34859;51.608;11.462;2024-03-29T07:13:00;7.80;99.90
49042;DHT22;34859;51.608;11.462;2024-03-29T07:15:51;7.80;99.90
49042;DHT22;34859;51.608;11.462;2024-03-29T07:18:38;7.90;99.90
49042;DHT22;34859;51.608;11.462;2024-03-29T07:21:26;8.00;99.90
49042;DHT22;34859;51.608;11.462;2024-03-29T07:24:13;8.10;99.90
49042;DHT22;34859;51.608;11.462;2024-03-29T07:27:00;8.10;99.90
49042;DHT22;34859;51.608;11.462;2024-03-29T07:29:47;8.20;99.90
49042;DHT22;34859;51.608;11.462;2024-03-29T07:32:34;8.30;99.90
49042;DHT22;34859;51.608;11.462;2024-03-29T07:35:23;8.40;99.90
49042;DHT22;34859;51.608;11.462;2024-03-29T07:38:10;8.40;99.90
49042;DHT22;34859;51.608;11.462;2024-03-29T07:40:58;8.50;99.90
49042;DHT22;34859;51.608;11.462;2024-03-29T07:43:53;8.60;99.90
49042;DHT22;34859;51.608;11.462;2024-03-29T07:46:45;8.80;99.90
49042;DHT22;34859;51.608;11.462;2024-03-29T07:49:33;8.80;99.90
49042;DHT22;34859;51.608;11.462;2024-03-29T07:52:21;8.90;99.90
49042;DHT22;34859;51.608;11.462;2024-03-29T07:55:08;8.90;99.90
49042;DHT22;34859;51.608;11.462;2024-03-29T07:57:56;8.90;99.90
49042;DHT22;34859;51.608;11.462;2024-03-29T08:00:44;8.90;99.90
49042;DHT22;34859;51.608;11.462;2024-03-29T08:03:31;9.00;99.90
49042;DHT22;34859;51.608;11.462;2024-03-29T08:06:20;9.00;99.90
49042;DHT22;34859;51.608;11.462;2024-03-29T08:09:09;9.10;99.90
49042;DHT22;34859;51.608;11.462;2024-03-29T08:12:00;9.10;99.90
49042;DHT22;34859;51.608;11.462;2024-03-29T08:14:47;9.10;99.90
49042;DHT22;34859;51.608;11.462;2024-03-29T08:17:36;9.00;99.90
49042;DHT22;34859;51.608;11.462;2024-03-29T08:20:23;9.00;99.90
49042;DHT22;34859;51.608;11.462;2024-03-29T08:23:15;9.00;99.90
49042;DHT22;34859;51.608;11.462;2024-03-29T08:26:02;8.90;99.90
49042;DHT22;34859;51.608;11.462;2024-03-29T08:28:49;8.90;99.90
49042;DHT22;34859;51.608;11.462;2024-03-29T08:31:36;9.00;99.90
49042;DHT22;34859;51.608;11.462;2024-03-29T08:34:24;9.10;99.90
49042;DHT22;34859;51.608;11.462;2024-03-29T08:37:13;9.20;99.90
49042;DHT22;34859;51.608;11.462;2024-03-29T08:40:00;9.20;99.90
49042;DHT22;34859;51.608;11.462;2024-03-29T08:42:47;9.20;99.90
49042;DHT22;34859;51.608;11.462;2024-03-29T08:45:35;9.10;99.90
49042;DHT22;34859;51.608;11.462;2024-03-29T08:48:29;9.20;99.90
49042;DHT22;34859;51.608;11.462;2024-03-29T08:51:17;9.20;99.90
49042;DHT22;34859;51.608;11.462;2024-03-29T08:54:04;9.30;99.90
49042;DHT22;34859;51.608;11.462;2024-03-29T08:56:51;9.30;99.90
49042;DHT22;34859;51.608;11.462;2024-03-29T08:59:37;9.30;99.90
49042;DHT22;34859;51.608;11.462;2024-03-29T09:02:25;9.50;99.90
49042;DHT22;34859;51.608;11.462;2024-03-29T09:05:12;9.50;99.90
49042;DHT22;34859;51.608;11.462;2024-03-29T09:08:00;9.70;99.90
49042;DHT22;34859;51.608;11.462;2024-03-29T09:10:47;9.80;99.90
49042;DHT22;34859;51.608;11.462;2024-03-29T09:13:34;10.10;99.90
49042;DHT22;34859;51.608;11.462;2024-03-29T09:16:21;10.30;99.90
49042;DHT22;34859;51.608;11.462;2024-03-29T09:19:08;10.50;99.90
49042;DHT22;34859;51.608;11.462;2024-03-29T09:22:21;10.70;99.90
49042;DHT22;34859;51.608;11.462;2024-03-29T09:25:08;11.00;99.90
49042;DHT22;34859;51.608;11.462;2024-03-29T09:27:58;10.90;99.90
49042;DHT22;34859;51.608;11.462;2024-03-29T09:30:45;10.70;99.90
49042;DHT22;34859;51.608;11.462;2024-03-29T09:33:34;10.80;99.90
49042;DHT22;34859;51.608;11.462;2024-03-29T09:36:21;11.00;99.90
49042;DHT22;34859;51.608;11.462;2024-03-29T09:39:11;11.10;99.90
49042;DHT22;34859;51.608;11.462;2024-03-29T09:41:58;11.40;99.90
49042;DHT22;34859;51.608;11.462;2024-03-29T09:44:50;11.60;99.90
49042;DHT22;34859;51.608;11.462;2024-03-29T09:47:43;11.60;99.90
49042;DHT22;34859;51.608;11.462;2024-03-29T09:50:39;11.60;99.90
49042;DHT22;34859;51.608;11.462;2024-03-29T09:53:26;11.60;99.90
49042;DHT22;34859;51.608;11.462;2024-03-29T09:56:12;11.70;99.90
49042;DHT22;34859;51.608;11.462;2024-03-29T09:58:59;11.90;99.90
49042;DHT22;34859;51.608;11.462;2024-03-29T10:01:48;12.00;99.90
49042;DHT22;34859;51.608;11.462;2024-03-29T10:04:36;12.00;99.90
49042;DHT22;34859;51.608;11.462;2024-03-29T10:07:24;12.10;99.90
49042;DHT22;34859;51.608;11.462;2024-03-29T10:10:12;12.20;99.90
49042;DHT22;34859;51.608;11.462;2024-03-29T10:13:00;12.20;99.90
49042;DHT22;34859;51.608;11.462;2024-03-29T10:15:48;12.30;99.90
49042;DHT22;34859;51.608;11.462;2024-03-29T10:18:36;12.40;99.90
49042;DHT22;34859;51.608;11.462;2024-03-29T10:21:26;12.50;99.90
49042;DHT22;34859;51.608;11.462;2024-03-29T10:24:15;12.60;99.90
49042;DHT22;34859;51.608;11.462;2024-03-29T11:43:51;12.60;99.90
49042;DHT22;34859;51.608;11.462;2024-03-29T11:46:38;12.80;99.90
49042;DHT22;34859;51.608;11.462;2024-03-29T11:49:25;12.90;99.90
49042;DHT22;34859;51.608;11.462;2024-03-29T11:52:11;13.10;99.90
49042;DHT22;34859;51.608;11.462;2024-03-29T11:54:58;13.10;99.90
49042;DHT22;34859;51.608;11.462;2024-03-29T11:57:44;13.40;99.90
49042;DHT22;34859;51.608;11.462;2024-03-29T12:00:30;13.60;99.90
49042;DHT22;34859;51.608;11.462;2024-03-29T12:03:17;13.70;99.90
49042;DHT22;34859;51.608;11.462;2024-03-29T12:06:04;13.90;99.90
49042;DHT22;34859;51.608;11.462;2024-03-29T12:08:51;13.90;99.90
49042;DHT22;34859;51.608;11.462;2024-03-29T12:11:38;14.20;99.90
49042;DHT22;34859;51.608;11.462;2024-03-29T12:14:24;14.50;99.90
49042;DHT22;34859;51.608;11.462;2024-03-29T12:17:12;14.60;99.90
49042;DHT22;34859;51.608;11.462;2024-03-29T12:19:59;14.60;99.90
49042;DHT22;34859;51.608;11.462;2024-03-29T12:22:52;14.60;99.90
49042;DHT22;34859;51.608;11.462;2024-03-29T12:25:38;14.90;99.90
49042;DHT22;34859;51.608;11.462;2024-03-29T12:28:25;14.90;99.90
49042;DHT22;34859;51.608;11.462;2024-03-29T12:31:11;14.70;99.90
49042;DHT22;34859;51.608;11.462;2024-03-29T12:33:57;14.50;99.90
49042;DHT22;34859;51.608;11.462;2024-03-29T12:36:46;14.40;99.90
49042;DHT22;34859;51.608;11.462;2024-03-29T12:39:33;14.70;99.90
49042;DHT22;34859;51.608;11.462;2024-03-29T12:42:19;14.80;99.90
49042;DHT22;34859;51.608;11.462;2024-03-29T12:45:05;14.70;99.90
49042;DHT22;34859;51.608;11.462;2024-03-29T12:47:53;14.40;99.90
49042;DHT22;34859;51.608;11.462;2024-03-29T12:50:41;14.30;99.90
49042;DHT22;34859;51.608;11.462;2024-03-29T12:53:28;14.20;99.90
49042;DHT22;34859;51.608;11.462;2024-03-29T12:56:14;14.20;99.90
49042;DHT22;34859;51.608;11.462;2024-03-29T18:17:14;10.70;99.90
49042;DHT22;34859;51.608;11.462;2024-03-29T18:20:00;10.60;99.90
49042;DHT22;34859;51.608;11.462;2024-03-29T18:22:46;10.60;99.90
49042;DHT22;34859;51.608;11.462;2024-03-29T18:25:32;10.60;99.90
49042;DHT22;34859;51.608;11.462;2024-03-29T20:04:55;9.00;99.90
49042;DHT22;34859;51.608;11.462;2024-03-29T20:07:41;9.00;99.90
49042;DHT22;34859;51.608;11.462;2024-03-29T20:10:28;9.00;99.90
49042;DHT22;34859;51.608;11.462;2024-03-29T20:13:14;8.90;99.90
49042;DHT22;34859;51.608;11.462;2024-03-29T20:16:01;8.80;99.90
49042;DHT22;34859;51.608;11.462;2024-03-29T20:18:47;8.70;99.90
49042;DHT22;34859;51.608;11.462;2024-03-29T20:21:33;8.80;99.90
49042;DHT22;34859;51.608;11.462;2024-03-29T20:24:21;8.80;99.90
49042;DHT22;34859;51.608;11.462;2024-03-29T20:27:13;8.80;99.90
49042;DHT22;34859;51.608;11.462;2024-03-29T20:29:59;8.80;99.90
49042;DHT22;34859;51.608;11.462;2024-03-29T20:32:46;8.80;99.90
49042;DHT22;34859;51.608;11.462;2024-03-29T20:35:40;8.70;99.90
49042;DHT22;34859;51.608;11.462;2024-03-29T20:38:26;8.50;99.90
49042;DHT22;34859;51.608;11.462;2024-03-29T20:41:13;8.50;99.90
49042;DHT22;34859;51.608;11.462;2024-03-29T20:44:02;8.40;99.90
49042;DHT22;34859;51.608;11.462;2024-03-29T20:46:48;8.30;99.90
49042;DHT22;34859;51.608;11.462;2024-03-29T20:49:35;8.30;99.90
49042;DHT22;34859;51.608;11.462;2024-03-29T20:52:22;8.10;99.90
49042;DHT22;34859;51.608;11.462;2024-03-29T20:55:10;8.10;99.90
49042;DHT22;34859;51.608;11.462;2024-03-29T20:58:00;8.20;99.90
49042;DHT22;34859;51.608;11.462;2024-03-29T21:00:47;8.20;99.90
49042;DHT22;34859;51.608;11.462;2024-03-29T21:03:38;8.20;99.90
49042;DHT22;34859;51.608;11.462;2024-03-29T21:07:09;8.10;99.90
49042;DHT22;34859;51.608;11.462;2024-03-29T21:10:13;8.00;99.90
49042;DHT22;34859;51.608;11.462;2024-03-29T21:13:59;8.10;99.90
49042;DHT22;34859;51.608;11.462;2024-03-29T21:24:29;7.80;99.90
49042;DHT22;34859;51.608;11.462;2024-03-29T21:32:18;7.80;99.90
49042;DHT22;34859;51.608;11.462;2024-03-29T21:40:04;7.90;99.90
49042;DHT22;34859;51.608;11.462;2024-03-29T21:47:41;7.80;99.90
49042;DHT22;34859;51.608;11.462;2024-03-29T21:55:46;7.70;99.90
49042;DHT22;34859;51.608;11.462;2024-03-29T21:59:34;7.60;99.90
49042;DHT22;34859;51.608;11.462;2024-03-29T22:03:32;7.50;99.90
49042;DHT22;34859;51.608;11.462;2024-03-29T22:07:16;7.50;99.90
49042;DHT22;34859;51.608;11.462;2024-03-29T22:14:42;7.40;99.90
49042;DHT22;34859;51.608;11.462;2024-03-29T22:25:57;7.50;99.90
49042;DHT22;34859;51.608;11.462;2024-03-29T22:29:46;7.60;99.90
49042;DHT22;34859;51.608;11.462;2024-03-29T22:37:18;7.70;99.90
49042;DHT22;34859;51.608;11.462;2024-03-29T22:52:02;7.80;99.90
49042;DHT22;34859;51.608;11.462;2024-03-29T22:55:48;7.70;99.90
49042;DHT22;34859;51.608;11.462;2024-03-29T23:18:00;7.60;99.90
49042;DHT22;34859;51.608;11.462;2024-03-29T23:25:44;7.60;99.90
49042;DHT22;34859;51.608;11.462;2024-03-29T23:52:12;7.60;99.90
49042;DHT22;34859;51.608;11.462;2024-03-29T23:59:42;7.50;99.90
